createdAt,value
2023-04-15T00:00:33.997Z,3.72
2023-04-15T00:03:02.479Z,3.25
2023-04-15T00:05:33.154Z,3.30
2023-04-15T00:08:02.045Z,3.40
2023-04-15T00:10:29.349Z,3.08
2023-04-15T00:12:56.818Z,3.40
2023-04-15T00:15:23.938Z,3.05
2023-04-15T00:17:52.313Z,3.85
2023-04-15T00:20:19.596Z,3.20
2023-04-15T00:22:47.349Z,3.20
2023-04-15T00:25:15.280Z,2.90
2023-04-15T00:27:42.479Z,3.67
2023-04-15T00:30:09.805Z,3.10
2023-04-15T00:32:37.091Z,3.28
2023-04-15T00:35:04.401Z,3.03
2023-04-15T00:37:31.932Z,3.50
2023-04-15T00:39:59.154Z,3.40
2023-04-15T00:42:26.465Z,2.90
2023-04-15T00:44:53.742Z,2.78
2023-04-15T00:47:21.442Z,3.30
2023-04-15T00:49:48.628Z,3.35
2023-04-15T00:52:15.791Z,3.15
2023-04-15T00:54:42.949Z,3.08
2023-04-15T00:57:10.129Z,3.00
2023-04-15T00:59:37.303Z,3.38
2023-04-15T01:02:04.570Z,3.88
2023-04-15T01:04:32.091Z,3.00
2023-04-15T01:06:59.371Z,2.88
2023-04-15T01:09:27.089Z,3.33
2023-04-15T01:11:54.327Z,3.08
2023-04-15T01:14:21.994Z,3.08
2023-04-15T01:16:49.217Z,2.95
2023-04-15T01:19:18.113Z,3.20
2023-04-15T01:21:46.009Z,2.80
2023-04-15T01:24:14.714Z,2.95
2023-04-15T01:26:43.545Z,2.88
2023-04-15T01:29:11.807Z,3.25
2023-04-15T01:31:39.068Z,2.92
2023-04-15T01:34:06.252Z,3.10
2023-04-15T01:36:33.410Z,3.33
2023-04-15T01:39:00.796Z,2.75
2023-04-15T01:41:28.819Z,3.20
2023-04-15T01:43:56.652Z,2.88
2023-04-15T01:46:24.034Z,2.70
2023-04-15T01:48:51.634Z,2.90
2023-04-15T01:51:18.789Z,2.90
2023-04-15T01:53:46.497Z,2.92
2023-04-15T01:56:15.280Z,2.97
2023-04-15T01:58:43.633Z,3.20
2023-04-15T02:01:11.560Z,3.30
2023-04-15T02:03:39.618Z,3.30
2023-04-15T02:06:06.898Z,3.22
2023-04-15T02:08:34.136Z,2.97
2023-04-15T02:11:01.358Z,2.92
2023-04-15T02:13:28.557Z,3.10
2023-04-15T02:15:56.101Z,2.70
2023-04-15T02:18:23.376Z,2.75
2023-04-15T02:20:52.041Z,3.50
2023-04-15T02:23:19.213Z,2.95
2023-04-15T02:25:54.066Z,2.90
2023-04-15T02:28:21.955Z,2.72
2023-04-15T02:30:54.418Z,3.30
2023-04-15T02:33:22.304Z,2.65
2023-04-15T02:35:49.527Z,3.22
2023-04-15T02:38:17.943Z,3.08
2023-04-15T02:40:45.207Z,2.72
2023-04-15T02:43:12.535Z,3.25
2023-04-15T02:45:39.731Z,3.28
2023-04-15T02:48:06.995Z,2.95
2023-04-15T02:50:34.260Z,3.05
2023-04-15T02:53:02.674Z,2.70
2023-04-15T02:55:30.065Z,2.90
2023-04-15T02:57:59.599Z,2.60
2023-04-15T03:00:27.321Z,2.75
2023-04-15T03:02:59.243Z,3.00
2023-04-15T03:05:26.636Z,2.53
2023-04-15T03:07:54.105Z,2.95
2023-04-15T03:10:22.001Z,2.88
2023-04-15T03:12:49.498Z,2.80
2023-04-15T03:15:16.696Z,2.75
2023-04-15T03:17:44.003Z,3.10
2023-04-15T03:20:11.352Z,2.75
2023-04-15T03:22:38.604Z,2.60
2023-04-15T03:25:06.172Z,2.63
2023-04-15T03:27:33.428Z,2.70
2023-04-15T03:30:00.620Z,2.80
2023-04-15T03:32:27.917Z,2.60
2023-04-15T03:34:55.435Z,3.03
2023-04-15T03:37:22.598Z,2.90
2023-04-15T03:39:49.825Z,2.70
2023-04-15T03:42:16.990Z,2.80
2023-04-15T03:44:44.145Z,2.28
2023-04-15T03:47:11.443Z,2.70
2023-04-15T03:49:38.630Z,2.70
2023-04-15T03:52:06.174Z,2.60
2023-04-15T03:54:33.346Z,2.78
2023-04-15T03:57:01.318Z,3.10
2023-04-15T03:59:28.507Z,2.60
2023-04-15T04:01:55.798Z,2.58
2023-04-15T04:04:23.361Z,2.80
2023-04-15T04:06:50.984Z,2.85
2023-04-15T04:09:18.184Z,2.95
2023-04-15T04:11:45.738Z,2.80
2023-04-15T04:14:12.880Z,2.95
2023-04-15T04:16:40.100Z,2.80
2023-04-15T04:19:07.545Z,2.70
2023-04-15T04:21:34.780Z,2.60
2023-04-15T04:24:02.109Z,2.75
2023-04-15T04:26:29.288Z,2.60
2023-04-15T04:28:56.502Z,2.85
2023-04-15T04:31:23.700Z,3.00
2023-04-15T04:33:51.240Z,2.75
2023-04-15T04:36:18.527Z,2.60
2023-04-15T04:38:45.697Z,2.42
2023-04-15T04:41:12.906Z,3.13
2023-04-15T04:43:40.098Z,2.50
2023-04-15T04:46:07.342Z,2.33
2023-04-15T04:48:34.591Z,2.53
2023-04-15T04:51:01.750Z,2.33
2023-04-15T04:53:28.969Z,2.35
2023-04-15T04:55:56.259Z,2.60
2023-04-15T04:58:23.397Z,2.55
2023-04-15T05:00:51.028Z,2.60
2023-04-15T05:03:18.338Z,3.03
2023-04-15T05:05:45.917Z,2.70
2023-04-15T05:08:13.059Z,2.20
2023-04-15T05:10:40.305Z,2.85
2023-04-15T05:13:07.575Z,2.85
2023-04-15T05:15:36.925Z,2.40
2023-04-15T05:18:04.184Z,2.38
2023-04-15T05:20:31.378Z,2.75
2023-04-15T05:22:58.580Z,2.45
2023-04-15T05:25:26.101Z,2.47
2023-04-15T05:27:53.284Z,2.60
2023-04-15T05:30:20.607Z,2.40
2023-04-15T05:32:47.795Z,2.35
2023-04-15T05:35:15.010Z,2.40
2023-04-15T05:37:42.214Z,2.60
2023-04-15T05:40:10.704Z,2.88
2023-04-15T05:42:38.025Z,2.38
2023-04-15T05:45:09.024Z,2.50
2023-04-15T05:47:37.486Z,2.50
2023-04-15T05:50:05.033Z,2.70
2023-04-15T05:52:32.588Z,2.88
2023-04-15T05:54:59.732Z,3.00
2023-04-15T05:57:26.957Z,2.80
2023-04-15T05:59:54.279Z,2.50
2023-04-15T06:02:22.143Z,2.90
2023-04-15T06:04:49.371Z,2.55
2023-04-15T06:07:16.614Z,3.22
2023-04-15T06:09:44.707Z,2.70
2023-04-15T06:12:13.188Z,2.97
2023-04-15T06:14:40.693Z,3.25
2023-04-15T06:17:08.561Z,2.70
2023-04-15T06:19:36.720Z,2.58
2023-04-15T06:22:04.252Z,2.65
2023-04-15T06:24:33.113Z,2.60
2023-04-15T06:27:00.318Z,2.80
2023-04-15T06:29:27.494Z,2.78
2023-04-15T06:31:54.754Z,2.60
2023-04-15T06:34:22.089Z,3.05
2023-04-15T06:36:49.376Z,2.33
2023-04-15T06:39:16.550Z,2.67
2023-04-15T06:41:43.933Z,2.80
2023-04-15T06:44:11.408Z,3.80
2023-04-15T06:46:38.566Z,4.53
2023-04-15T06:49:05.738Z,5.28
2023-04-15T06:51:32.952Z,4.68
2023-04-15T06:54:00.157Z,5.60
2023-04-15T06:56:27.329Z,5.40
2023-04-15T06:58:54.635Z,5.05
2023-04-15T07:01:22.556Z,5.10
2023-04-15T07:03:49.949Z,4.20
2023-04-15T07:06:17.243Z,4.13
2023-04-15T07:08:44.959Z,4.70
2023-04-15T07:11:12.363Z,4.50
2023-04-15T07:13:39.574Z,4.28
2023-04-15T07:16:06.813Z,5.03
2023-04-15T07:18:34.016Z,4.75
2023-04-15T07:21:01.601Z,5.35
2023-04-15T07:23:29.477Z,6.30
2023-04-15T07:25:57.405Z,5.80
2023-04-15T07:28:24.607Z,5.75
2023-04-15T07:30:51.867Z,4.85
2023-04-15T07:33:19.150Z,4.93
2023-04-15T07:35:47.080Z,5.43
2023-04-15T07:38:14.314Z,4.95
2023-04-15T07:40:42.399Z,5.40
2023-04-15T07:43:09.943Z,4.80
2023-04-15T07:45:37.172Z,4.90
2023-04-15T07:48:04.580Z,4.55
2023-04-15T07:50:31.837Z,4.75
2023-04-15T07:52:59.015Z,4.78
2023-04-15T07:55:27.782Z,4.90
2023-04-15T07:57:55.723Z,4.63
2023-04-15T08:00:23.738Z,4.20
2023-04-15T08:02:53.195Z,4.57
2023-04-15T08:05:20.890Z,4.22
2023-04-15T08:07:48.131Z,4.15
2023-04-15T08:10:15.410Z,4.25
2023-04-15T08:12:42.811Z,3.72
2023-04-15T08:15:10.219Z,3.95
2023-04-15T08:17:37.408Z,3.80
2023-04-15T08:20:05.932Z,3.80
2023-04-15T08:22:33.161Z,4.38
2023-04-15T08:25:00.388Z,4.18
2023-04-15T08:27:27.626Z,4.13
2023-04-15T08:29:54.885Z,3.80
2023-04-15T08:32:22.561Z,4.30
2023-04-15T08:34:50.218Z,3.92
2023-04-15T08:37:17.637Z,4.18
2023-04-15T08:39:45.392Z,3.75
2023-04-15T08:42:17.063Z,4.43
2023-04-15T08:44:45.099Z,3.63
2023-04-15T08:47:14.678Z,3.75
2023-04-15T08:49:43.558Z,4.20
2023-04-15T08:52:10.864Z,3.90
2023-04-15T08:54:38.743Z,3.20
2023-04-15T08:57:06.254Z,3.90
2023-04-15T08:59:33.514Z,3.42
2023-04-15T09:02:01.212Z,4.15
2023-04-15T09:04:29.676Z,5.63
2023-04-15T09:06:57.194Z,5.15
2023-04-15T09:09:24.404Z,4.85
2023-04-15T09:11:51.648Z,4.80
2023-04-15T09:14:18.857Z,5.10
2023-04-15T09:17:12.239Z,5.30
2023-04-15T09:19:39.432Z,5.90
2023-04-15T09:22:07.125Z,6.35
2023-04-15T09:24:38.805Z,5.55
2023-04-15T09:27:06.408Z,5.32
2023-04-15T09:29:33.632Z,5.50
2023-04-15T09:32:10.862Z,5.30
2023-04-15T09:34:38.409Z,5.13
2023-04-15T09:37:07.624Z,5.25
2023-04-15T09:39:51.388Z,5.85
2023-04-15T09:42:24.339Z,5.15
2023-04-15T09:44:53.090Z,4.78
2023-04-15T09:47:32.893Z,5.57
2023-04-15T09:50:01.022Z,5.97
2023-04-15T09:52:28.862Z,5.00
2023-04-15T09:54:57.682Z,5.35
2023-04-15T09:57:25.200Z,4.50
2023-04-15T09:59:52.592Z,4.68
2023-04-15T10:02:23.290Z,4.97
2023-04-15T10:04:50.998Z,5.40
2023-04-15T10:07:20.658Z,4.32
2023-04-15T10:09:49.141Z,4.70
2023-04-15T10:12:18.276Z,5.70
2023-04-15T10:14:45.774Z,5.43
2023-04-15T10:17:13.152Z,4.80
2023-04-15T10:19:41.367Z,4.88
2023-04-15T10:22:08.720Z,4.95
2023-04-15T10:24:36.599Z,4.50
2023-04-15T10:27:06.564Z,4.70
2023-04-15T10:29:33.774Z,5.13
2023-04-15T10:32:01.713Z,5.20
2023-04-15T10:34:29.897Z,5.50
2023-04-15T10:36:57.876Z,5.28
2023-04-15T10:39:34.241Z,4.80
2023-04-15T10:42:21.885Z,5.10
2023-04-15T10:44:52.937Z,4.55
2023-04-15T10:47:21.802Z,5.32
2023-04-15T10:49:59.058Z,5.05
2023-04-15T10:52:27.623Z,4.65
2023-04-15T10:55:04.891Z,4.63
2023-04-15T10:57:36.313Z,5.68
2023-04-15T11:00:10.333Z,5.10
2023-04-15T11:02:45.252Z,6.30
2023-04-15T11:05:16.185Z,6.55
2023-04-15T11:07:56.833Z,6.38
2023-04-15T11:10:27.322Z,12.05
2023-04-15T11:12:55.487Z,24.58
2023-04-15T11:15:25.722Z,14.48
2023-04-15T11:17:52.921Z,12.63
2023-04-15T11:20:20.647Z,13.60
2023-04-15T11:22:51.346Z,14.90
2023-04-15T11:25:24.653Z,13.52
2023-04-15T11:27:52.014Z,14.50
2023-04-15T11:30:23.050Z,11.82
2023-04-15T11:32:51.066Z,13.32
2023-04-15T11:35:18.901Z,12.45
2023-04-15T11:37:46.555Z,12.23
2023-04-15T11:40:15.406Z,12.80
2023-04-15T11:42:49.618Z,12.68
2023-04-15T11:45:17.384Z,12.25
2023-04-15T11:47:44.664Z,13.70
2023-04-15T11:50:22.383Z,17.92
2023-04-15T11:52:58.499Z,29.95
2023-04-15T11:55:26.144Z,26.17
2023-04-15T11:58:13.516Z,23.42
2023-04-15T12:00:41.998Z,24.27
2023-04-15T12:03:24.695Z,20.15
2023-04-15T12:06:03.883Z,19.10
2023-04-15T12:08:49.499Z,18.75
2023-04-15T12:11:17.675Z,19.88
2023-04-15T12:13:45.343Z,20.58
2023-04-15T12:16:12.642Z,20.23
2023-04-15T12:18:39.966Z,22.63
2023-04-15T12:21:10.943Z,22.02
2023-04-15T12:23:38.770Z,19.95
2023-04-15T12:26:09.540Z,19.13
2023-04-15T12:28:37.175Z,18.27
2023-04-15T12:31:08.865Z,15.88
2023-04-15T12:33:36.258Z,18.60
2023-04-15T12:36:03.780Z,16.92
2023-04-15T12:38:33.978Z,17.52
2023-04-15T12:41:01.249Z,16.92
2023-04-15T12:43:28.427Z,13.95
2023-04-15T12:45:55.669Z,14.82
2023-04-15T12:48:22.870Z,12.90
2023-04-15T12:50:50.374Z,11.50
2023-04-15T12:53:17.570Z,12.73
2023-04-15T12:55:44.719Z,11.43
2023-04-15T12:58:12.004Z,10.23
2023-04-15T13:00:39.214Z,9.55
2023-04-15T13:03:07.393Z,7.97
2023-04-15T13:05:37.018Z,7.63
2023-04-15T13:08:04.269Z,7.25
2023-04-15T13:10:31.874Z,6.97
2023-04-15T13:13:02.400Z,7.60
2023-04-15T13:15:29.930Z,5.85
2023-04-15T13:17:57.191Z,6.28
2023-04-15T13:20:24.604Z,5.13
2023-04-15T13:22:52.915Z,5.45
2023-04-15T13:25:20.338Z,4.60
2023-04-15T13:27:48.103Z,4.65
2023-04-15T13:30:15.307Z,4.90
2023-04-15T13:32:42.509Z,4.90
2023-04-15T13:35:09.873Z,5.25
2023-04-15T13:37:37.085Z,5.30
2023-04-15T13:40:07.161Z,4.70
2023-04-15T13:42:34.435Z,4.55
2023-04-15T13:45:01.695Z,5.60
2023-04-15T13:47:28.923Z,4.50
2023-04-15T13:49:56.609Z,5.30
2023-04-15T13:52:24.395Z,4.72
2023-04-15T13:55:07.311Z,5.63
2023-04-15T13:57:39.072Z,4.90
2023-04-15T14:00:06.899Z,4.78
2023-04-15T14:02:34.402Z,4.93
2023-04-15T14:05:01.847Z,6.03
2023-04-15T14:07:30.163Z,5.00
2023-04-15T14:09:57.683Z,4.50
2023-04-15T14:12:24.968Z,6.22
2023-04-15T14:14:52.245Z,6.30
2023-04-15T14:17:19.461Z,6.50
2023-04-15T14:19:46.915Z,6.72
2023-04-15T14:22:14.068Z,7.32
2023-04-15T14:24:41.511Z,6.03
2023-04-15T14:27:08.830Z,6.53
2023-04-15T14:29:36.140Z,7.53
2023-04-15T14:32:11.494Z,5.85
2023-04-15T14:34:39.590Z,6.63
2023-04-15T14:37:07.075Z,6.78
2023-04-15T14:39:34.603Z,7.00
2023-04-15T14:42:01.875Z,6.57
2023-04-15T14:44:29.186Z,6.70
2023-04-15T14:46:56.776Z,6.22
2023-04-15T14:49:24.224Z,7.38
2023-04-15T14:51:51.457Z,6.00
2023-04-15T14:54:19.722Z,6.90
2023-04-15T14:56:47.940Z,6.53
2023-04-15T14:59:15.349Z,6.53
2023-04-15T15:01:42.602Z,6.35
2023-04-15T15:04:11.305Z,6.18
2023-04-15T15:06:38.582Z,6.07
2023-04-15T15:09:05.936Z,6.35
2023-04-15T15:11:33.310Z,5.82
2023-04-15T15:14:00.689Z,6.45
2023-04-15T15:16:29.355Z,6.50
2023-04-15T15:18:56.718Z,5.88
2023-04-15T15:21:23.969Z,5.47
2023-04-15T15:23:51.211Z,6.20
2023-04-15T15:26:19.326Z,6.30
2023-04-15T15:28:46.759Z,6.00
2023-04-15T15:31:14.081Z,5.97
2023-04-15T15:33:41.262Z,6.75
2023-04-15T15:36:08.452Z,6.07
2023-04-15T15:38:35.744Z,5.70
2023-04-15T15:41:02.908Z,6.00
2023-04-15T15:43:30.394Z,5.97
2023-04-15T15:45:57.591Z,5.22
2023-04-15T15:48:25.049Z,4.93
2023-04-15T15:50:53.109Z,5.68
2023-04-15T15:53:21.025Z,5.95
2023-04-15T15:55:48.605Z,6.13
2023-04-15T15:58:16.045Z,6.03
2023-04-15T16:00:43.301Z,5.30
2023-04-15T16:03:10.969Z,5.50
2023-04-15T16:05:38.643Z,5.35
2023-04-15T16:08:06.091Z,5.53
2023-04-15T16:10:33.381Z,5.25
2023-04-15T16:13:00.581Z,5.05
2023-04-15T16:15:27.783Z,5.50
2023-04-15T16:17:54.997Z,5.82
2023-04-15T16:20:22.244Z,5.97
2023-04-15T16:22:49.494Z,5.82
2023-04-15T16:25:16.638Z,5.10
2023-04-15T16:27:57.654Z,5.65
2023-04-15T16:30:26.862Z,5.32
2023-04-15T16:32:54.148Z,5.53
2023-04-15T16:35:21.389Z,5.80
2023-04-15T16:37:48.550Z,5.75
2023-04-15T16:40:15.859Z,6.90
2023-04-15T16:42:43.780Z,5.82
2023-04-15T16:45:11.159Z,6.20
2023-04-15T16:47:38.385Z,5.65
2023-04-15T16:50:05.886Z,5.90
2023-04-15T16:52:33.440Z,6.03
2023-04-15T16:55:00.750Z,5.40
2023-04-15T16:57:50.715Z,5.15
2023-04-15T17:00:15.832Z,5.50
2023-04-15T17:02:43.215Z,5.25
2023-04-15T17:05:10.791Z,5.38
2023-04-15T17:07:37.963Z,5.82
2023-04-15T17:10:05.248Z,5.30
2023-04-15T17:12:32.417Z,5.45
2023-04-15T17:14:59.567Z,5.72
2023-04-15T17:17:26.741Z,5.13
2023-04-15T17:19:54.090Z,5.40
2023-04-15T17:22:21.354Z,4.80
2023-04-15T17:24:48.475Z,5.15
2023-04-15T17:27:15.603Z,4.68
2023-04-15T17:29:43.034Z,5.45
2023-04-15T17:32:11.146Z,5.22
2023-04-15T17:34:49.681Z,4.93
2023-04-15T17:37:18.777Z,4.93
2023-04-15T17:39:46.240Z,5.13
2023-04-15T17:42:13.670Z,5.80
2023-04-15T17:44:41.136Z,5.85
2023-04-15T17:47:08.434Z,6.82
2023-04-15T17:49:37.675Z,6.38
2023-04-15T17:52:04.963Z,7.53
2023-04-15T17:54:32.157Z,6.93
2023-04-15T17:57:00.129Z,6.97
2023-04-15T17:59:28.229Z,7.63
2023-04-15T18:01:55.682Z,8.20
2023-04-15T18:04:26.501Z,8.52
2023-04-15T18:06:54.262Z,8.15
2023-04-15T18:09:21.739Z,9.35
2023-04-15T18:11:49.180Z,9.50
2023-04-15T18:14:30.618Z,8.88
2023-04-15T18:17:01.216Z,8.95
2023-04-15T18:19:28.506Z,8.43
2023-04-15T18:21:55.711Z,9.30
2023-04-15T18:24:23.198Z,8.52
2023-04-15T18:26:50.493Z,8.77
2023-04-15T18:29:18.570Z,8.90
2023-04-15T18:31:45.773Z,8.70
2023-04-15T18:34:13.398Z,8.60
2023-04-15T18:36:40.553Z,8.50
2023-04-15T18:39:08.129Z,7.70
2023-04-15T18:41:35.526Z,7.20
2023-04-15T18:44:02.753Z,7.15
2023-04-15T18:46:30.009Z,7.43
2023-04-15T18:48:57.281Z,7.60
2023-04-15T18:51:24.467Z,7.55
2023-04-15T18:53:51.716Z,7.28
2023-04-15T18:56:18.914Z,6.57
2023-04-15T18:59:08.936Z,7.65
2023-04-15T19:01:33.511Z,8.00
2023-04-15T19:04:01.591Z,7.07
2023-04-15T19:06:29.353Z,7.25
2023-04-15T19:08:58.480Z,7.88
2023-04-15T19:11:26.311Z,7.82
2023-04-15T19:13:53.600Z,7.43
2023-04-15T19:16:21.010Z,6.88
2023-04-15T19:18:48.291Z,6.55
2023-04-15T19:21:16.182Z,6.03
2023-04-15T19:23:43.429Z,9.05
2023-04-15T19:26:10.925Z,53.40
2023-04-15T19:28:38.099Z,54.92
2023-04-15T19:31:05.391Z,30.40
2023-04-15T19:33:32.716Z,19.10
2023-04-15T19:36:04.210Z,20.75
2023-04-15T19:38:31.662Z,20.58
2023-04-15T19:40:59.108Z,20.20
2023-04-15T19:43:26.382Z,18.40
2023-04-15T19:45:54.754Z,16.05
2023-04-15T19:48:23.043Z,15.60
2023-04-15T19:50:50.296Z,14.32
2023-04-15T19:53:17.527Z,13.98
2023-04-15T19:55:44.832Z,13.05
2023-04-15T19:58:12.030Z,12.35
2023-04-15T20:00:39.473Z,12.20
2023-04-15T20:03:06.820Z,11.60
2023-04-15T20:05:34.108Z,10.52
2023-04-15T20:08:01.990Z,10.75
2023-04-15T20:10:31.598Z,9.80
2023-04-15T20:12:58.860Z,9.68
2023-04-15T20:15:26.114Z,9.23
2023-04-15T20:17:53.513Z,8.38
2023-04-15T20:20:20.876Z,9.13
2023-04-15T20:22:48.218Z,8.63
2023-04-15T20:25:15.840Z,8.27
2023-04-15T20:27:43.095Z,7.82
2023-04-15T20:30:13.509Z,8.43
2023-04-15T20:32:40.779Z,7.40
2023-04-15T20:35:08.189Z,6.00
2023-04-15T20:37:36.297Z,6.93
2023-04-15T20:40:03.541Z,7.65
2023-04-15T20:42:36.942Z,6.75
2023-04-15T20:45:04.416Z,7.18
2023-04-15T20:47:31.703Z,6.25
2023-04-15T20:49:58.875Z,5.80
2023-04-15T20:52:26.230Z,6.28
2023-04-15T20:54:53.436Z,6.28
2023-04-15T20:57:20.720Z,6.38
2023-04-15T20:59:47.986Z,6.65
2023-04-15T21:02:15.563Z,6.72
2023-04-15T21:04:42.958Z,6.18
2023-04-15T21:07:10.459Z,6.88
2023-04-15T21:09:41.184Z,5.47
2023-04-15T21:12:08.447Z,5.97
2023-04-15T21:14:36.991Z,4.90
2023-04-15T21:17:09.253Z,6.15
2023-04-15T21:19:38.326Z,5.82
2023-04-15T21:22:05.651Z,6.55
2023-04-15T21:24:32.859Z,5.50
2023-04-15T21:27:00.052Z,5.35
2023-04-15T21:29:27.314Z,5.28
2023-04-15T21:31:54.536Z,5.68
2023-04-15T21:34:21.945Z,5.25
2023-04-15T21:36:49.112Z,5.85
2023-04-15T21:39:17.064Z,4.30
2023-04-15T21:41:44.423Z,5.30
2023-04-15T21:44:13.904Z,5.15
2023-04-15T21:46:41.914Z,5.65
2023-04-15T21:49:13.381Z,5.55
2023-04-15T21:51:40.622Z,6.78
2023-04-15T21:54:07.831Z,5.93
2023-04-15T21:56:35.372Z,6.15
2023-04-15T21:59:02.532Z,5.43
2023-04-15T22:01:29.803Z,5.90
2023-04-15T22:03:57.194Z,6.53
2023-04-15T22:06:24.790Z,6.07
2023-04-15T22:08:57.440Z,6.50
2023-04-15T22:11:30.311Z,5.90
2023-04-15T22:13:58.154Z,6.18
2023-04-15T22:16:28.502Z,6.50
2023-04-15T22:18:56.068Z,5.88
2023-04-15T22:21:23.445Z,6.20
2023-04-15T22:23:50.730Z,6.22
2023-04-15T22:26:18.050Z,6.15
2023-04-15T22:28:46.111Z,6.00
2023-04-15T22:31:14.740Z,6.55
2023-04-15T22:33:41.999Z,5.97
2023-04-15T22:36:09.276Z,6.85
2023-04-15T22:38:36.424Z,6.28
2023-04-15T22:41:03.591Z,6.35
2023-04-15T22:43:30.801Z,6.13
2023-04-15T22:45:58.017Z,6.70
2023-04-15T22:48:25.262Z,5.60
2023-04-15T22:50:52.702Z,5.80
2023-04-15T22:53:20.092Z,6.35
2023-04-15T22:55:48.021Z,5.95
2023-04-15T22:58:15.492Z,6.93
2023-04-15T23:00:42.721Z,6.10
2023-04-15T23:03:10.084Z,6.68
2023-04-15T23:05:37.495Z,6.93
2023-04-15T23:08:04.718Z,5.78
2023-04-15T23:10:31.886Z,5.65
2023-04-15T23:12:59.161Z,5.57
2023-04-15T23:15:26.336Z,5.75
2023-04-15T23:17:53.617Z,5.35
2023-04-15T23:20:20.923Z,5.60
2023-04-15T23:22:48.137Z,5.28
2023-04-15T23:25:15.412Z,6.07
2023-04-15T23:27:42.570Z,5.90
2023-04-15T23:30:09.941Z,5.47
2023-04-15T23:32:37.140Z,5.53
2023-04-15T23:35:04.451Z,5.90
2023-04-15T23:37:31.832Z,6.03
2023-04-15T23:39:59.041Z,6.75
2023-04-15T23:42:26.320Z,5.18
2023-04-15T23:44:53.572Z,5.95
2023-04-15T23:47:22.170Z,6.30
2023-04-15T23:49:49.333Z,5.63
2023-04-15T23:52:16.530Z,5.18
2023-04-15T23:54:43.687Z,4.97
2023-04-15T23:57:13.907Z,5.07
2023-04-15T23:59:41.090Z,5.43
